CDT,Max TemperatureF,Mean TemperatureF,Min TemperatureF,Max Dew PointF,MeanDew PointF,Min DewpointF,Max Humidity, Mean Humidity, Min Humidity, Max Sea Level PressureIn, Mean Sea Level PressureIn, Min Sea Level PressureIn, Max VisibilityMiles, Mean VisibilityMiles, Min VisibilityMiles, Max Wind SpeedMPH, Mean Wind SpeedMPH, Max Gust SpeedMPH,PrecipitationIn, CloudCover, Events, WindDirDegrees
2012-9-1,82,78,73,74,72,71,94,87,79,30.01,29.91,29.82,10,7,2,21,9,28,1.95,7,Rain,86
2012-9-2,83,78,73,73,71,70,93,79,65,29.88,29.84,29.80,10,9,2,18,9,23,0.12,6,Rain,51
2012-9-3,90,80,70,72,71,69,100,76,52,29.93,29.89,29.86,10,8,3,12,5,16,0.00,2,,35
2012-9-4,91,81,71,73,71,68,93,72,50,29.90,29.86,29.81,10,10,7,25,2,36,0.00,0,,228
2012-9-5,82,73,64,68,64,60,90,76,62,29.96,29.84,29.79,10,9,2,29,8,36,0.20,2,Rain-Thunderstorm,179
2012-9-6,86,76,65,68,62,55,97,67,37,29.96,29.90,29.86,10,10,4,10,2,14,0.00,1,,334
2012-9-7,77,67,57,66,62,55,93,79,64,29.95,29.84,29.77,10,9,2,20,7,33,0.62,5,Rain-Thunderstorm,29
2012-9-8,72,62,52,55,50,47,93,67,41,29.99,29.93,29.87,10,10,10,16,8,24,0.00,0,,297
2012-9-9,73,63,53,54,50,45,89,64,38,30.17,30.06,29.89,10,10,10,13,5,20,0.00,2,,358
2012-9-10,76,64,51,54,51,49,96,67,38,30.23,30.16,30.09,10,10,10,12,4,17,0.00,0,,186
2012-9-11,83,70,56,58,55,51,86,63,40,30.16,30.10,30.04,10,10,10,20,10,25,0.00,0,,189
2012-9-12,84,71,58,62,57,55,87,62,37,30.17,30.12,30.08,10,10,7,18,8,23,0.00,0,,193
2012-9-13,73,63,53,60,54,49,100,80,60,30.35,30.25,30.14,10,9,3,15,6,23,0.26,6,Rain,7
2012-9-14,72,61,50,52,48,41,96,66,35,30.39,30.34,30.32,10,8,1,9,2,13,0.00,3,Rain,2
2012-9-15,77,63,48,55,49,44,93,63,33,30.34,30.26,30.16,10,10,10,10,1,13,0.00,0,,124
2012-9-16,76,63,50,58,53,47,93,68,43,30.15,30.06,29.98,10,10,6,12,3,17,0.00,0,,197
2012-9-17,76,63,50,64,59,48,100,82,64,29.98,29.89,29.76,10,5,0,24,5,36,0.13,5,Fog-Rain-Thunderstorm,259
2012-9-18,63,54,45,48,40,33,93,64,34,30.07,29.97,29.88,10,10,10,15,6,25,0.00,0,,330
2012-9-19,74,59,43,52,43,38,89,62,35,30.09,29.98,29.87,10,10,10,28,13,37,T,1,Rain-Thunderstorm,196
2012-9-20,72,61,49,52,43,31,96,60,23,29.98,29.94,29.89,10,10,10,16,4,24,0.00,1,,290
2012-9-21,66,56,46,51,46,41,93,73,52,29.97,29.86,29.72,10,10,10,21,5,29,T,4,Rain,52
2012-9-22,61,53,44,46,38,31,93,65,36,30.24,30.06,29.86,10,10,7,18,7,32,0.00,1,,308
2012-9-23,63,51,39,40,35,28,92,60,27,30.31,30.27,30.23,10,10,10,14,3,21,0.00,0,,305
2012-9-24,71,54,37,43,37,34,92,60,27,30.25,30.11,29.93,10,10,10,20,8,26,0.00,0,,206
2012-9-25,74,64,54,63,56,44,93,75,57,29.91,29.87,29.83,10,7,1,14,4,17,0.04,4,Rain,185
2012-9-26,75,66,56,64,62,50,100,84,67,30.12,29.96,29.88,10,3,0,17,5,22,0.00,5,Fog,134
2012-9-27,71,62,52,49,44,38,83,57,31,30.22,30.17,30.12,10,10,10,15,7,20,0.00,1,,43
2012-9-28,70,58,45,48,45,42,93,67,40,30.22,30.16,30.11,10,10,7,14,3,17,0.00,0,,19
2012-9-29,78,61,44,50,45,41,93,61,28,30.16,30.07,29.96,10,9,5,12,3,15,0.00,0,,291
2012-9-30,74,61,48,48,45,41,93,63,33,29.98,29.94,29.89,10,10,7,15,7,20,0.00,0,,57